sensor_id;sensor_type;location;lat;lon;timestamp;pressure;altitude;pressure_sealevel;temperature;humidity
18137;BME280;9194;42.632;23.298;2024-01-15T00:02:05;91999.84;;;-3.84;100.00
18137;BME280;9194;42.632;23.298;2024-01-15T00:07:09;92001.78;;;-3.78;100.00
18137;BME280;9194;42.632;23.298;2024-01-15T00:12:10;92003.28;;;-3.67;100.00
18137;BME280;9194;42.632;23.298;2024-01-15T00:17:11;91994.97;;;-3.77;100.00
18137;BME280;9194;42.632;23.298;2024-01-15T00:22:12;91991.44;;;-3.84;100.00
18137;BME280;9194;42.632;23.298;2024-01-15T00:27:14;91995.47;;;-3.74;100.00
18137;BME280;9194;42.632;23.298;2024-01-15T00:32:16;91993.38;;;-3.78;100.00
18137;BME280;9194;42.632;23.298;2024-01-15T00:37:17;92002.94;;;-3.72;100.00
18137;BME280;9194;42.632;23.298;2024-01-15T00:42:18;91996.75;;;-3.69;100.00
18137;BME280;9194;42.632;23.298;2024-01-15T00:47:20;92011.53;;;-3.73;100.00
18137;BME280;9194;42.632;23.298;2024-01-15T00:52:21;92000.66;;;-3.83;100.00
18137;BME280;9194;42.632;23.298;2024-01-15T00:57:22;92000.78;;;-3.93;100.00
18137;BME280;9194;42.632;23.298;2024-01-15T01:02:23;91997.91;;;-3.90;100.00
18137;BME280;9194;42.632;23.298;2024-01-15T01:07:24;91992.53;;;-3.87;100.00
18137;BME280;9194;42.632;23.298;2024-01-15T01:12:26;91993.00;;;-3.91;100.00
18137;BME280;9194;42.632;23.298;2024-01-15T01:17:28;91992.50;;;-3.95;100.00
18137;BME280;9194;42.632;23.298;2024-01-15T01:22:29;91987.59;;;-3.96;100.00
18137;BME280;9194;42.632;23.298;2024-01-15T01:27:30;91996.94;;;-3.97;100.00
18137;BME280;9194;42.632;23.298;2024-01-15T01:32:31;91972.75;;;-4.01;100.00
18137;BME280;9194;42.632;23.298;2024-01-15T01:37:33;91966.19;;;-4.11;100.00
18137;BME280;9194;42.632;23.298;2024-01-15T01:42:35;91970.19;;;-4.09;100.00
18137;BME280;9194;42.632;23.298;2024-01-15T01:47:37;91959.09;;;-4.08;100.00
18137;BME280;9194;42.632;23.298;2024-01-15T01:52:39;91959.50;;;-4.13;100.00
18137;BME280;9194;42.632;23.298;2024-01-15T01:57:41;91968.41;;;-4.17;100.00
18137;BME280;9194;42.632;23.298;2024-01-15T02:02:43;91959.03;;;-4.16;100.00
18137;BME280;9194;42.632;23.298;2024-01-15T02:07:44;91949.16;;;-4.19;100.00
18137;BME280;9194;42.632;23.298;2024-01-15T02:12:46;91935.97;;;-4.23;100.00
18137;BME280;9194;42.632;23.298;2024-01-15T02:18:04;91927.69;;;-4.25;100.00
18137;BME280;9194;42.632;23.298;2024-01-15T02:28:15;91877.06;;;-4.18;100.00
18137;BME280;9194;42.632;23.298;2024-01-15T02:33:17;91883.59;;;-4.16;100.00
18137;BME280;9194;42.632;23.298;2024-01-15T02:38:18;91896.50;;;-4.09;100.00
18137;BME280;9194;42.632;23.298;2024-01-15T02:43:20;91900.03;;;-4.02;100.00
18137;BME280;9194;42.632;23.298;2024-01-15T02:48:21;91884.13;;;-3.96;100.00
18137;BME280;9194;42.632;23.298;2024-01-15T02:53:22;91887.38;;;-3.86;100.00
18137;BME280;9194;42.632;23.298;2024-01-15T02:58:23;91879.25;;;-3.89;100.00
18137;BME280;9194;42.632;23.298;2024-01-15T03:03:24;91885.81;;;-3.79;100.00
18137;BME280;9194;42.632;23.298;2024-01-15T03:08:26;91876.41;;;-3.78;100.00
18137;BME280;9194;42.632;23.298;2024-01-15T03:13:27;91885.66;;;-3.69;100.00
18137;BME280;9194;42.632;23.298;2024-01-15T03:18:28;91871.22;;;-3.68;100.00
18137;BME280;9194;42.632;23.298;2024-01-15T03:23:29;91870.88;;;-3.65;100.00
18137;BME280;9194;42.632;23.298;2024-01-15T03:28:30;91841.06;;;-3.55;100.00
18137;BME280;9194;42.632;23.298;2024-01-15T03:33:32;91840.59;;;-3.26;100.00
18137;BME280;9194;42.632;23.298;2024-01-15T03:38:33;91830.09;;;-3.15;100.00
18137;BME280;9194;42.632;23.298;2024-01-15T03:43:34;91838.84;;;-3.18;100.00
18137;BME280;9194;42.632;23.298;2024-01-15T03:48:35;91851.22;;;-3.31;100.00
18137;BME280;9194;42.632;23.298;2024-01-15T03:53:38;91851.22;;;-3.47;100.00
18137;BME280;9194;42.632;23.298;2024-01-15T03:58:39;91845.50;;;-3.57;100.00
18137;BME280;9194;42.632;23.298;2024-01-15T04:03:40;91832.94;;;-3.67;100.00
18137;BME280;9194;42.632;23.298;2024-01-15T04:08:41;91830.69;;;-3.70;100.00
18137;BME280;9194;42.632;23.298;2024-01-15T04:13:42;91826.06;;;-3.75;100.00
18137;BME280;9194;42.632;23.298;2024-01-15T04:18:44;91825.09;;;-3.82;100.00
18137;BME280;9194;42.632;23.298;2024-01-15T04:23:45;91831.13;;;-3.91;100.00
18137;BME280;9194;42.632;23.298;2024-01-15T04:28:46;91833.63;;;-3.99;100.00
18137;BME280;9194;42.632;23.298;2024-01-15T04:33:47;91838.56;;;-3.89;100.00
18137;BME280;9194;42.632;23.298;2024-01-15T04:38:48;91832.25;;;-3.85;100.00
18137;BME280;9194;42.632;23.298;2024-01-15T04:43:50;91830.00;;;-3.96;100.00
18137;BME280;9194;42.632;23.298;2024-01-15T04:48:51;91838.06;;;-4.01;100.00
18137;BME280;9194;42.632;23.298;2024-01-15T04:53:52;91829.03;;;-3.95;100.00
18137;BME280;9194;42.632;23.298;2024-01-15T04:58:53;91812.38;;;-3.82;100.00
18137;BME280;9194;42.632;23.298;2024-01-15T05:03:54;91814.56;;;-3.95;100.00
18137;BME280;9194;42.632;23.298;2024-01-15T05:08:56;91804.09;;;-3.92;100.00
18137;BME280;9194;42.632;23.298;2024-01-15T05:13:57;91774.41;;;-3.83;100.00
18137;BME280;9194;42.632;23.298;2024-01-15T05:18:58;91778.72;;;-3.67;100.00
18137;BME280;9194;42.632;23.298;2024-01-15T05:23:59;91786.97;;;-3.65;100.00
18137;BME280;9194;42.632;23.298;2024-01-15T05:29:00;91803.50;;;-3.69;100.00
18137;BME280;9194;42.632;23.298;2024-01-15T05:34:02;91797.78;;;-3.80;100.00
18137;BME280;9194;42.632;23.298;2024-01-15T05:39:03;91790.13;;;-3.88;100.00
18137;BME280;9194;42.632;23.298;2024-01-15T05:44:04;91788.72;;;-3.82;100.00
18137;BME280;9194;42.632;23.298;2024-01-15T05:49:05;91783.31;;;-3.79;100.00
18137;BME280;9194;42.632;23.298;2024-01-15T05:54:07;91773.97;;;-3.79;100.00
18137;BME280;9194;42.632;23.298;2024-01-15T05:59:08;91776.16;;;-3.84;100.00
18137;BME280;9194;42.632;23.298;2024-01-15T06:04:09;91786.50;;;-3.77;100.00
18137;BME280;9194;42.632;23.298;2024-01-15T06:09:10;91788.88;;;-3.76;100.00
18137;BME280;9194;42.632;23.298;2024-01-15T06:14:12;91786.00;;;-3.73;100.00
18137;BME280;9194;42.632;23.298;2024-01-15T06:19:13;91767.13;;;-3.62;100.00
18137;BME280;9194;42.632;23.298;2024-01-15T06:24:14;91766.00;;;-3.43;100.00
18137;BME280;9194;42.632;23.298;2024-01-15T06:29:16;91761.53;;;-3.25;100.00
18137;BME280;9194;42.632;23.298;2024-01-15T06:34:17;91764.19;;;-2.86;100.00
18137;BME280;9194;42.632;23.298;2024-01-15T06:39:18;91773.81;;;-2.57;100.00
18137;BME280;9194;42.632;23.298;2024-01-15T06:44:19;91774.94;;;-2.21;100.00
18137;BME280;9194;42.632;23.298;2024-01-15T06:49:22;91765.66;;;-1.83;100.00
18137;BME280;9194;42.632;23.298;2024-01-15T06:54:23;91764.44;;;-1.41;100.00
18137;BME280;9194;42.632;23.298;2024-01-15T06:59:24;91772.00;;;-1.33;100.00
18137;BME280;9194;42.632;23.298;2024-01-15T07:04:26;91778.25;;;-1.13;100.00
18137;BME280;9194;42.632;23.298;2024-01-15T07:09:27;91785.28;;;-1.15;100.00
18137;BME280;9194;42.632;23.298;2024-01-15T07:14:28;91799.22;;;-1.03;100.00
18137;BME280;9194;42.632;23.298;2024-01-15T07:19:29;91786.50;;;-0.88;100.00
18137;BME280;9194;42.632;23.298;2024-01-15T07:24:30;91764.81;;;-0.92;100.00
18137;BME280;9194;42.632;23.298;2024-01-15T07:29:32;91770.63;;;-0.84;100.00
18137;BME280;9194;42.632;23.298;2024-01-15T07:34:34;91775.66;;;-0.75;100.00
18137;BME280;9194;42.632;23.298;2024-01-15T07:39:35;91762.00;;;-0.68;100.00
18137;BME280;9194;42.632;23.298;2024-01-15T07:44:37;91761.03;;;-0.23;100.00
18137;BME280;9194;42.632;23.298;2024-01-15T07:49:38;91766.84;;;-0.14;100.00
18137;BME280;9194;42.632;23.298;2024-01-15T07:54:39;91778.56;;;-0.05;100.00
18137;BME280;9194;42.632;23.298;2024-01-15T07:59:40;91762.47;;;0.16;100.00
18137;BME280;9194;42.632;23.298;2024-01-15T08:04:41;91742.81;;;0.59;100.00
18137;BME280;9194;42.632;23.298;2024-01-15T08:09:43;91725.13;;;0.85;100.00
18137;BME280;9194;42.632;23.298;2024-01-15T08:14:44;91734.91;;;0.75;100.00
18137;BME280;9194;42.632;23.298;2024-01-15T08:19:46;91739.75;;;0.91;100.00
18137;BME280;9194;42.632;23.298;2024-01-15T08:24:47;91766.66;;;0.59;100.00
18137;BME280;9194;42.632;23.298;2024-01-15T08:29:48;91770.66;;;0.26;100.00
18137;BME280;9194;42.632;23.298;2024-01-15T08:34:50;91747.84;;;-0.05;100.00
18137;BME280;9194;42.632;23.298;2024-01-15T08:39:53;91751.13;;;-0.11;100.00
18137;BME280;9194;42.632;23.298;2024-01-15T08:44:54;91752.19;;;-0.06;100.00
18137;BME280;9194;42.632;23.298;2024-01-15T08:49:55;91735.88;;;-0.05;100.00
18137;BME280;9194;42.632;23.298;2024-01-15T08:54:57;91746.78;;;0.04;100.00
18137;BME280;9194;42.632;23.298;2024-01-15T08:59:58;91738.91;;;0.20;100.00
18137;BME280;9194;42.632;23.298;2024-01-15T09:05:00;91721.59;;;0.22;100.00
18137;BME280;9194;42.632;23.298;2024-01-15T09:10:05;91705.28;;;0.23;100.00
18137;BME280;9194;42.632;23.298;2024-01-15T09:15:06;91679.06;;;0.43;100.00
18137;BME280;9194;42.632;23.298;2024-01-15T09:20:09;91668.66;;;0.72;100.00
18137;BME280;9194;42.632;23.298;2024-01-15T09:25:11;91642.19;;;1.20;96.24
18137;BME280;9194;42.632;23.298;2024-01-15T09:30:12;91650.44;;;1.57;87.61
18137;BME280;9194;42.632;23.298;2024-01-15T09:35:13;91623.78;;;1.58;83.62
18137;BME280;9194;42.632;23.298;2024-01-15T09:40:15;91630.78;;;1.84;84.90
18137;BME280;9194;42.632;23.298;2024-01-15T09:45:17;91614.63;;;1.90;90.03
18137;BME280;9194;42.632;23.298;2024-01-15T09:50:18;91608.84;;;1.68;83.08
18137;BME280;9194;42.632;23.298;2024-01-15T09:55:19;91595.47;;;1.25;84.60
18137;BME280;9194;42.632;23.298;2024-01-15T10:00:22;91575.63;;;1.47;88.09
18137;BME280;9194;42.632;23.298;2024-01-15T10:05:24;91590.47;;;1.64;85.67
18137;BME280;9194;42.632;23.298;2024-01-15T10:10:25;91584.31;;;1.52;89.23
18137;BME280;9194;42.632;23.298;2024-01-15T10:15:26;91574.88;;;1.59;90.94
18137;BME280;9194;42.632;23.298;2024-01-15T10:20:28;91564.84;;;1.71;91.32
18137;BME280;9194;42.632;23.298;2024-01-15T10:25:29;91536.06;;;1.89;88.95
18137;BME280;9194;42.632;23.298;2024-01-15T10:30:32;91548.53;;;2.38;85.02
18137;BME280;9194;42.632;23.298;2024-01-15T10:35:34;91535.47;;;2.53;85.09
18137;BME280;9194;42.632;23.298;2024-01-15T10:40:35;91530.31;;;2.72;84.03
18137;BME280;9194;42.632;23.298;2024-01-15T10:45:36;91529.25;;;3.00;82.46
18137;BME280;9194;42.632;23.298;2024-01-15T10:50:38;91490.16;;;3.29;81.71
18137;BME280;9194;42.632;23.298;2024-01-15T10:55:41;91508.25;;;3.54;78.02
18137;BME280;9194;42.632;23.298;2024-01-15T11:00:43;91507.72;;;3.77;75.83
18137;BME280;9194;42.632;23.298;2024-01-15T11:05:44;91479.16;;;4.34;75.05
18137;BME280;9194;42.632;23.298;2024-01-15T11:10:47;91487.91;;;4.02;74.63
18137;BME280;9194;42.632;23.298;2024-01-15T11:26:43;91465.94;;;4.49;76.56
18137;BME280;9194;42.632;23.298;2024-01-15T11:41:50;91460.38;;;4.88;70.10
18137;BME280;9194;42.632;23.298;2024-01-15T11:52:00;91458.66;;;5.01;71.07
18137;BME280;9194;42.632;23.298;2024-01-15T11:57:04;91446.25;;;4.91;72.67
18137;BME280;9194;42.632;23.298;2024-01-15T12:02:07;91447.38;;;5.13;72.09
18137;BME280;9194;42.632;23.298;2024-01-15T12:07:08;91441.16;;;5.03;71.43
18137;BME280;9194;42.632;23.298;2024-01-15T12:12:15;91413.81;;;5.02;71.69
18137;BME280;9194;42.632;23.298;2024-01-15T12:17:20;91424.56;;;4.80;72.99
18137;BME280;9194;42.632;23.298;2024-01-15T12:22:21;91443.91;;;4.71;79.11
18137;BME280;9194;42.632;23.298;2024-01-15T12:27:23;91431.59;;;4.91;75.03
18137;BME280;9194;42.632;23.298;2024-01-15T12:32:25;91429.03;;;5.21;73.66
18137;BME280;9194;42.632;23.298;2024-01-15T12:37:26;91410.03;;;5.34;72.32
18137;BME280;9194;42.632;23.298;2024-01-15T12:42:27;91402.63;;;5.37;74.31
18137;BME280;9194;42.632;23.298;2024-01-15T12:47:30;91407.13;;;5.42;73.95
18137;BME280;9194;42.632;23.298;2024-01-15T12:52:32;91400.25;;;5.36;71.46
18137;BME280;9194;42.632;23.298;2024-01-15T12:57:37;91408.06;;;5.18;75.48
18137;BME280;9194;42.632;23.298;2024-01-15T13:02:42;91397.94;;;4.68;85.00
18137;BME280;9194;42.632;23.298;2024-01-15T13:07:44;91390.88;;;4.64;85.64
18137;BME280;9194;42.632;23.298;2024-01-15T13:12:45;91387.16;;;4.60;85.26
18137;BME280;9194;42.632;23.298;2024-01-15T13:17:46;91375.19;;;4.29;89.21
18137;BME280;9194;42.632;23.298;2024-01-15T13:22:47;91387.31;;;4.03;95.94
18137;BME280;9194;42.632;23.298;2024-01-15T13:27:48;91382.59;;;4.00;100.00
18137;BME280;9194;42.632;23.298;2024-01-15T13:32:50;91381.38;;;4.03;100.00
18137;BME280;9194;42.632;23.298;2024-01-15T13:37:51;91366.56;;;3.98;100.00
18137;BME280;9194;42.632;23.298;2024-01-15T13:42:54;91364.63;;;3.94;100.00
18137;BME280;9194;42.632;23.298;2024-01-15T13:47:55;91372.56;;;3.67;100.00
18137;BME280;9194;42.632;23.298;2024-01-15T13:52:56;91373.25;;;3.56;100.00
18137;BME280;9194;42.632;23.298;2024-01-15T13:57:58;91351.09;;;3.55;100.00
18137;BME280;9194;42.632;23.298;2024-01-15T14:02:59;91351.53;;;3.52;100.00
18137;BME280;9194;42.632;23.298;2024-01-15T14:08:00;91345.16;;;3.30;100.00
18137;BME280;9194;42.632;23.298;2024-01-15T14:13:01;91345.41;;;3.22;100.00
18137;BME280;9194;42.632;23.298;2024-01-15T14:18:02;91360.78;;;2.97;100.00
18137;BME280;9194;42.632;23.298;2024-01-15T14:23:04;91353.13;;;2.91;100.00
18137;BME280;9194;42.632;23.298;2024-01-15T14:28:05;91338.19;;;2.74;100.00
18137;BME280;9194;42.632;23.298;2024-01-15T14:33:07;91335.09;;;2.59;100.00
18137;BME280;9194;42.632;23.298;2024-01-15T14:38:09;91332.59;;;2.46;100.00
18137;BME280;9194;42.632;23.298;2024-01-15T14:43:10;91336.19;;;2.38;100.00
18137;BME280;9194;42.632;23.298;2024-01-15T14:48:11;91318.28;;;2.19;100.00
18137;BME280;9194;42.632;23.298;2024-01-15T14:53:14;91322.63;;;2.18;100.00
18137;BME280;9194;42.632;23.298;2024-01-15T14:58:15;91311.44;;;1.99;100.00
18137;BME280;9194;42.632;23.298;2024-01-15T15:03:16;91307.50;;;2.03;100.00
18137;BME280;9194;42.632;23.298;2024-01-15T15:08:18;91317.19;;;1.95;100.00
18137;BME280;9194;42.632;23.298;2024-01-15T15:13:20;91324.69;;;1.96;100.00
18137;BME280;9194;42.632;23.298;2024-01-15T15:18:21;91329.03;;;1.96;100.00
18137;BME280;9194;42.632;23.298;2024-01-15T15:23:23;91312.25;;;1.93;100.00
18137;BME280;9194;42.632;23.298;2024-01-15T15:28:24;91305.78;;;1.78;100.00
18137;BME280;9194;42.632;23.298;2024-01-15T15:33:25;91321.78;;;1.60;100.00
18137;BME280;9194;42.632;23.298;2024-01-15T15:38:26;91336.19;;;1.48;100.00
18137;BME280;9194;42.632;23.298;2024-01-15T15:43:29;91340.34;;;1.36;100.00
18137;BME280;9194;42.632;23.298;2024-01-15T15:48:30;91337.19;;;1.27;100.00
18137;BME280;9194;42.632;23.298;2024-01-15T15:53:32;91332.06;;;1.27;100.00
18137;BME280;9194;42.632;23.298;2024-01-15T15:58:33;91338.38;;;1.24;100.00
18137;BME280;9194;42.632;23.298;2024-01-15T16:03:34;91317.25;;;1.22;100.00
18137;BME280;9194;42.632;23.298;2024-01-15T16:08:35;91313.53;;;1.18;100.00
18137;BME280;9194;42.632;23.298;2024-01-15T16:13:36;91305.47;;;1.08;100.00
18137;BME280;9194;42.632;23.298;2024-01-15T16:18:38;91311.38;;;1.09;100.00
18137;BME280;9194;42.632;23.298;2024-01-15T16:23:39;91303.09;;;1.13;100.00
18137;BME280;9194;42.632;23.298;2024-01-15T16:28:40;91288.50;;;1.07;100.00
18137;BME280;9194;42.632;23.298;2024-01-15T16:33:42;91300.13;;;1.03;100.00
18137;BME280;9194;42.632;23.298;2024-01-15T16:38:43;91304.66;;;0.88;100.00
18137;BME280;9194;42.632;23.298;2024-01-15T16:43:44;91313.94;;;1.02;100.00
18137;BME280;9194;42.632;23.298;2024-01-15T16:48:45;91322.00;;;1.06;100.00
18137;BME280;9194;42.632;23.298;2024-01-15T16:53:46;91305.25;;;1.03;100.00
18137;BME280;9194;42.632;23.298;2024-01-15T16:58:48;91301.50;;;0.99;100.00
18137;BME280;9194;42.632;23.298;2024-01-15T17:03:49;91308.41;;;0.99;100.00
18137;BME280;9194;42.632;23.298;2024-01-15T17:08:50;91310.19;;;0.98;100.00
18137;BME280;9194;42.632;23.298;2024-01-15T17:13:51;91300.72;;;0.99;100.00
18137;BME280;9194;42.632;23.298;2024-01-15T17:18:52;91311.97;;;1.04;100.00
18137;BME280;9194;42.632;23.298;2024-01-15T17:23:54;91319.84;;;1.16;100.00
18137;BME280;9194;42.632;23.298;2024-01-15T17:28:55;91304.66;;;1.34;100.00
18137;BME280;9194;42.632;23.298;2024-01-15T17:33:56;91285.72;;;1.35;100.00
18137;BME280;9194;42.632;23.298;2024-01-15T17:38:57;91272.34;;;1.33;100.00
18137;BME280;9194;42.632;23.298;2024-01-15T17:43:59;91270.34;;;1.42;100.00
18137;BME280;9194;42.632;23.298;2024-01-15T17:49:00;91265.56;;;1.52;100.00
18137;BME280;9194;42.632;23.298;2024-01-15T17:54:04;91278.19;;;1.60;100.00
18137;BME280;9194;42.632;23.298;2024-01-15T17:59:09;91268.72;;;1.67;100.00
18137;BME280;9194;42.632;23.298;2024-01-15T18:04:12;91256.50;;;1.56;100.00
18137;BME280;9194;42.632;23.298;2024-01-15T18:09:13;91254.16;;;1.54;100.00
18137;BME280;9194;42.632;23.298;2024-01-15T18:14:18;91265.19;;;1.55;100.00
18137;BME280;9194;42.632;23.298;2024-01-15T18:19:19;91261.06;;;1.41;100.00
18137;BME280;9194;42.632;23.298;2024-01-15T18:24:20;91257.91;;;1.45;100.00
18137;BME280;9194;42.632;23.298;2024-01-15T18:29:21;91246.66;;;1.53;100.00
18137;BME280;9194;42.632;23.298;2024-01-15T18:34:23;91263.59;;;1.54;100.00
18137;BME280;9194;42.632;23.298;2024-01-15T18:39:24;91256.72;;;1.54;100.00
18137;BME280;9194;42.632;23.298;2024-01-15T18:44:26;91261.84;;;1.48;100.00
18137;BME280;9194;42.632;23.298;2024-01-15T18:49:27;91255.94;;;1.47;100.00
18137;BME280;9194;42.632;23.298;2024-01-15T18:54:28;91237.59;;;1.50;100.00
18137;BME280;9194;42.632;23.298;2024-01-15T18:59:29;91257.88;;;1.52;100.00
18137;BME280;9194;42.632;23.298;2024-01-15T19:04:32;91267.34;;;1.58;100.00
18137;BME280;9194;42.632;23.298;2024-01-15T19:09:34;91253.34;;;1.60;100.00
18137;BME280;9194;42.632;23.298;2024-01-15T19:14:35;91249.81;;;1.55;100.00
18137;BME280;9194;42.632;23.298;2024-01-15T19:19:36;91247.63;;;1.58;100.00
18137;BME280;9194;42.632;23.298;2024-01-15T19:24:38;91241.69;;;1.58;100.00
18137;BME280;9194;42.632;23.298;2024-01-15T19:29:39;91234.44;;;1.48;100.00
18137;BME280;9194;42.632;23.298;2024-01-15T19:34:41;91235.81;;;1.51;100.00
18137;BME280;9194;42.632;23.298;2024-01-15T19:39:42;91251.59;;;1.48;100.00
18137;BME280;9194;42.632;23.298;2024-01-15T19:44:44;91245.88;;;1.46;100.00
18137;BME280;9194;42.632;23.298;2024-01-15T19:49:46;91248.06;;;1.42;100.00
18137;BME280;9194;42.632;23.298;2024-01-15T19:54:48;91242.16;;;1.35;100.00
18137;BME280;9194;42.632;23.298;2024-01-15T19:59:50;91224.81;;;1.31;100.00
18137;BME280;9194;42.632;23.298;2024-01-15T20:04:54;91221.09;;;1.20;100.00
18137;BME280;9194;42.632;23.298;2024-01-15T20:09:55;91227.78;;;1.21;100.00
18137;BME280;9194;42.632;23.298;2024-01-15T20:14:57;91240.59;;;1.14;100.00
18137;BME280;9194;42.632;23.298;2024-01-15T20:19:58;91229.38;;;1.09;100.00
18137;BME280;9194;42.632;23.298;2024-01-15T20:25:00;91231.75;;;1.10;100.00
18137;BME280;9194;42.632;23.298;2024-01-15T20:30:01;91225.25;;;1.08;100.00
18137;BME280;9194;42.632;23.298;2024-01-15T20:35:06;91221.28;;;1.05;100.00
18137;BME280;9194;42.632;23.298;2024-01-15T20:40:08;91206.94;;;1.04;100.00
18137;BME280;9194;42.632;23.298;2024-01-15T20:45:09;91210.06;;;1.13;100.00
18137;BME280;9194;42.632;23.298;2024-01-15T20:50:10;91203.34;;;1.05;100.00
18137;BME280;9194;42.632;23.298;2024-01-15T20:55:12;91216.56;;;1.09;100.00
18137;BME280;9194;42.632;23.298;2024-01-15T21:00:13;91203.75;;;1.02;100.00
18137;BME280;9194;42.632;23.298;2024-01-15T21:05:15;91193.53;;;1.02;100.00
18137;BME280;9194;42.632;23.298;2024-01-15T21:10:16;91181.69;;;1.08;100.00
18137;BME280;9194;42.632;23.298;2024-01-15T21:15:18;91183.09;;;0.84;100.00
18137;BME280;9194;42.632;23.298;2024-01-15T21:20:19;91167.72;;;0.84;100.00
18137;BME280;9194;42.632;23.298;2024-01-15T21:25:20;91173.63;;;0.78;100.00
18137;BME280;9194;42.632;23.298;2024-01-15T21:30:22;91172.47;;;0.74;100.00
18137;BME280;9194;42.632;23.298;2024-01-15T21:35:23;91171.88;;;0.59;100.00
18137;BME280;9194;42.632;23.298;2024-01-15T21:40:24;91169.13;;;0.54;100.00
18137;BME280;9194;42.632;23.298;2024-01-15T21:45:25;91206.94;;;0.58;100.00
18137;BME280;9194;42.632;23.298;2024-01-15T21:50:27;91177.00;;;0.59;100.00
18137;BME280;9194;42.632;23.298;2024-01-15T21:55:29;91161.84;;;0.64;100.00
18137;BME280;9194;42.632;23.298;2024-01-15T22:00:30;91155.34;;;0.61;100.00
18137;BME280;9194;42.632;23.298;2024-01-15T22:05:31;91153.56;;;0.62;100.00
18137;BME280;9194;42.632;23.298;2024-01-15T22:10:32;91154.72;;;0.66;100.00
18137;BME280;9194;42.632;23.298;2024-01-15T22:15:34;91140.94;;;0.67;100.00
18137;BME280;9194;42.632;23.298;2024-01-15T22:20:35;91152.53;;;0.82;100.00
18137;BME280;9194;42.632;23.298;2024-01-15T22:25:37;91171.06;;;0.71;100.00
18137;BME280;9194;42.632;23.298;2024-01-15T22:30:38;91148.44;;;0.68;100.00
18137;BME280;9194;42.632;23.298;2024-01-15T22:35:39;91134.25;;;0.53;100.00
18137;BME280;9194;42.632;23.298;2024-01-15T22:40:40;91146.66;;;0.49;100.00
18137;BME280;9194;42.632;23.298;2024-01-15T22:45:42;91148.44;;;0.42;100.00
18137;BME280;9194;42.632;23.298;2024-01-15T22:50:43;91169.50;;;0.37;100.00
18137;BME280;9194;42.632;23.298;2024-01-15T22:55:44;91177.38;;;0.43;100.00
18137;BME280;9194;42.632;23.298;2024-01-15T23:00:46;91156.91;;;0.43;100.00
18137;BME280;9194;42.632;23.298;2024-01-15T23:05:47;91138.00;;;0.37;100.00
18137;BME280;9194;42.632;23.298;2024-01-15T23:10:48;91126.19;;;0.29;100.00
18137;BME280;9194;42.632;23.298;2024-01-15T23:15:50;91111.44;;;0.25;100.00
18137;BME280;9194;42.632;23.298;2024-01-15T23:20:52;91138.22;;;0.16;100.00
18137;BME280;9194;42.632;23.298;2024-01-15T23:25:54;91147.06;;;0.20;100.00
18137;BME280;9194;42.632;23.298;2024-01-15T23:30:55;91070.72;;;0.10;100.00
18137;BME280;9194;42.632;23.298;2024-01-15T23:35:56;91073.41;;;0.55;100.00
18137;BME280;9194;42.632;23.298;2024-01-15T23:41:01;91093.34;;;0.46;100.00
18137;BME280;9194;42.632;23.298;2024-01-15T23:46:05;91117.94;;;0.34;100.00
18137;BME280;9194;42.632;23.298;2024-01-15T23:51:06;91101.81;;;0.40;100.00
18137;BME280;9194;42.632;23.298;2024-01-15T23:56:07;91110.28;;;0.40;100.00
